sensor_id;sensor_type;location;lat;lon;timestamp;pressure;altitude;pressure_sealevel;temperature;humidity
53300;BME280;39187;48.476;8.310;2023-05-10T00:01:04;90738.56;;;9.53;100.00
53300;BME280;39187;48.476;8.310;2023-05-10T00:03:30;90745.53;;;9.63;100.00
53300;BME280;39187;48.476;8.310;2023-05-10T00:05:56;90745.56;;;9.76;100.00
53300;BME280;39187;48.476;8.310;2023-05-10T00:08:21;90741.13;;;9.57;100.00
53300;BME280;39187;48.476;8.310;2023-05-10T00:10:47;90745.22;;;9.45;100.00
53300;BME280;39187;48.476;8.310;2023-05-10T00:13:13;90737.09;;;9.36;100.00
53300;BME280;39187;48.476;8.310;2023-05-10T00:15:38;90742.63;;;9.42;100.00
53300;BME280;39187;48.476;8.310;2023-05-10T00:18:04;90744.97;;;9.40;100.00
53300;BME280;39187;48.476;8.310;2023-05-10T00:20:29;90740.81;;;9.22;100.00
53300;BME280;39187;48.476;8.310;2023-05-10T00:22:55;90753.28;;;9.25;100.00
53300;BME280;39187;48.476;8.310;2023-05-10T00:25:20;90760.56;;;9.38;100.00
53300;BME280;39187;48.476;8.310;2023-05-10T00:27:47;90751.28;;;9.30;100.00
53300;BME280;39187;48.476;8.310;2023-05-10T00:30:13;90747.81;;;9.33;100.00
53300;BME280;39187;48.476;8.310;2023-05-10T00:32:38;90748.47;;;9.37;100.00
53300;BME280;39187;48.476;8.310;2023-05-10T00:35:04;90748.38;;;9.24;100.00
53300;BME280;39187;48.476;8.310;2023-05-10T00:37:30;90755.25;;;9.38;100.00
53300;BME280;39187;48.476;8.310;2023-05-10T00:39:55;90754.44;;;9.41;100.00
53300;BME280;39187;48.476;8.310;2023-05-10T00:42:21;90757.09;;;9.24;100.00
53300;BME280;39187;48.476;8.310;2023-05-10T00:44:47;90762.47;;;9.37;100.00
53300;BME280;39187;48.476;8.310;2023-05-10T00:47:13;90755.44;;;9.31;100.00
53300;BME280;39187;48.476;8.310;2023-05-10T00:49:39;90769.13;;;9.29;100.00
53300;BME280;39187;48.476;8.310;2023-05-10T00:52:06;90769.63;;;9.40;100.00
53300;BME280;39187;48.476;8.310;2023-05-10T00:54:31;90771.03;;;9.29;100.00
53300;BME280;39187;48.476;8.310;2023-05-10T00:56:57;90769.47;;;9.31;100.00
53300;BME280;39187;48.476;8.310;2023-05-10T00:59:23;90759.94;;;9.34;100.00
53300;BME280;39187;48.476;8.310;2023-05-10T01:01:49;90762.81;;;9.39;100.00
53300;BME280;39187;48.476;8.310;2023-05-10T01:04:16;90755.09;;;9.29;100.00
53300;BME280;39187;48.476;8.310;2023-05-10T01:06:42;90769.06;;;9.33;100.00
53300;BME280;39187;48.476;8.310;2023-05-10T01:09:08;90767.56;;;9.32;100.00
53300;BME280;39187;48.476;8.310;2023-05-10T01:11:35;90763.25;;;9.21;100.00
53300;BME280;39187;48.476;8.310;2023-05-10T01:14:02;90762.72;;;9.43;100.00
53300;BME280;39187;48.476;8.310;2023-05-10T01:16:29;90758.56;;;9.42;100.00
53300;BME280;39187;48.476;8.310;2023-05-10T01:18:56;90759.50;;;9.35;100.00
53300;BME280;39187;48.476;8.310;2023-05-10T01:21:30;90762.25;;;9.32;100.00
53300;BME280;39187;48.476;8.310;2023-05-10T01:24:12;90769.47;;;9.47;100.00
53300;BME280;39187;48.476;8.310;2023-05-10T01:27:10;90761.41;;;9.35;100.00
53300;BME280;39187;48.476;8.310;2023-05-10T01:32:29;90762.41;;;9.41;100.00
53300;BME280;39187;48.476;8.310;2023-05-10T01:35:03;90758.75;;;9.35;100.00
53300;BME280;39187;48.476;8.310;2023-05-10T01:37:43;90763.16;;;9.25;100.00
53300;BME280;39187;48.476;8.310;2023-05-10T01:42:51;90760.41;;;9.29;100.00
53300;BME280;39187;48.476;8.310;2023-05-10T01:48:22;90758.31;;;9.36;100.00
53300;BME280;39187;48.476;8.310;2023-05-10T01:50:50;90763.06;;;9.29;100.00
53300;BME280;39187;48.476;8.310;2023-05-10T01:53:18;90768.56;;;9.21;100.00
53300;BME280;39187;48.476;8.310;2023-05-10T01:55:53;90768.19;;;9.36;100.00
53300;BME280;39187;48.476;8.310;2023-05-10T01:58:23;90773.13;;;9.21;100.00
53300;BME280;39187;48.476;8.310;2023-05-10T02:00:51;90768.31;;;9.32;100.00
53300;BME280;39187;48.476;8.310;2023-05-10T02:03:18;90767.91;;;9.34;100.00
53300;BME280;39187;48.476;8.310;2023-05-10T02:05:48;90772.13;;;9.31;100.00
53300;BME280;39187;48.476;8.310;2023-05-10T02:08:16;90772.97;;;9.28;100.00
53300;BME280;39187;48.476;8.310;2023-05-10T02:10:43;90772.88;;;9.32;100.00
53300;BME280;39187;48.476;8.310;2023-05-10T02:13:11;90772.00;;;9.35;100.00
53300;BME280;39187;48.476;8.310;2023-05-10T02:15:38;90783.88;;;9.30;100.00
53300;BME280;39187;48.476;8.310;2023-05-10T02:18:06;90770.09;;;9.35;100.00
53300;BME280;39187;48.476;8.310;2023-05-10T02:20:32;90774.34;;;9.33;100.00
53300;BME280;39187;48.476;8.310;2023-05-10T02:23:00;90776.09;;;9.07;100.00
53300;BME280;39187;48.476;8.310;2023-05-10T02:25:28;90784.31;;;9.12;100.00
53300;BME280;39187;48.476;8.310;2023-05-10T02:27:55;90779.81;;;9.09;100.00
53300;BME280;39187;48.476;8.310;2023-05-10T02:30:23;90782.31;;;9.16;100.00
53300;BME280;39187;48.476;8.310;2023-05-10T02:32:49;90785.91;;;9.26;100.00
53300;BME280;39187;48.476;8.310;2023-05-10T02:35:16;90786.88;;;9.32;100.00
53300;BME280;39187;48.476;8.310;2023-05-10T02:37:43;90782.41;;;9.29;100.00
53300;BME280;39187;48.476;8.310;2023-05-10T02:40:10;90794.44;;;9.34;100.00
53300;BME280;39187;48.476;8.310;2023-05-10T02:42:38;90788.53;;;9.42;100.00
53300;BME280;39187;48.476;8.310;2023-05-10T02:45:10;90791.28;;;9.22;100.00
53300;BME280;39187;48.476;8.310;2023-05-10T02:47:37;90791.09;;;9.30;100.00
53300;BME280;39187;48.476;8.310;2023-05-10T02:50:03;90787.97;;;9.02;100.00
53300;BME280;39187;48.476;8.310;2023-05-10T02:52:42;90794.75;;;9.03;100.00
53300;BME280;39187;48.476;8.310;2023-05-10T02:55:11;90792.59;;;9.31;100.00
53300;BME280;39187;48.476;8.310;2023-05-10T02:57:45;90796.19;;;9.40;100.00
53300;BME280;39187;48.476;8.310;2023-05-10T03:00:14;90799.91;;;9.10;100.00
53300;BME280;39187;48.476;8.310;2023-05-10T03:02:40;90797.75;;;9.21;100.00
53300;BME280;39187;48.476;8.310;2023-05-10T03:05:05;90806.28;;;9.29;100.00
53300;BME280;39187;48.476;8.310;2023-05-10T03:07:32;90793.34;;;9.31;100.00
53300;BME280;39187;48.476;8.310;2023-05-10T03:09:58;90790.94;;;9.37;100.00
53300;BME280;39187;48.476;8.310;2023-05-10T03:12:36;90798.00;;;9.27;100.00
53300;BME280;39187;48.476;8.310;2023-05-10T03:17:55;90798.31;;;9.13;100.00
53300;BME280;39187;48.476;8.310;2023-05-10T03:20:35;90793.28;;;9.18;100.00
53300;BME280;39187;48.476;8.310;2023-05-10T03:23:12;90794.59;;;9.27;100.00
53300;BME280;39187;48.476;8.310;2023-05-10T03:25:39;90802.97;;;9.25;100.00
53300;BME280;39187;48.476;8.310;2023-05-10T03:28:05;90800.31;;;9.09;100.00
53300;BME280;39187;48.476;8.310;2023-05-10T03:30:31;90806.03;;;9.07;100.00
53300;BME280;39187;48.476;8.310;2023-05-10T03:32:58;90797.31;;;9.23;100.00
53300;BME280;39187;48.476;8.310;2023-05-10T03:35:29;90799.56;;;9.08;100.00
53300;BME280;39187;48.476;8.310;2023-05-10T03:37:54;90799.81;;;9.14;100.00
53300;BME280;39187;48.476;8.310;2023-05-10T03:40:20;90802.22;;;9.08;100.00
53300;BME280;39187;48.476;8.310;2023-05-10T03:42:45;90809.44;;;9.24;100.00
53300;BME280;39187;48.476;8.310;2023-05-10T03:45:11;90801.91;;;9.39;100.00
53300;BME280;39187;48.476;8.310;2023-05-10T03:47:36;90802.16;;;9.28;100.00
53300;BME280;39187;48.476;8.310;2023-05-10T03:50:02;90808.03;;;9.19;100.00
53300;BME280;39187;48.476;8.310;2023-05-10T03:52:27;90813.34;;;9.19;100.00
53300;BME280;39187;48.476;8.310;2023-05-10T03:54:53;90816.16;;;9.12;100.00
53300;BME280;39187;48.476;8.310;2023-05-10T03:57:18;90819.00;;;9.21;100.00
53300;BME280;39187;48.476;8.310;2023-05-10T03:59:44;90816.50;;;9.31;100.00
53300;BME280;39187;48.476;8.310;2023-05-10T04:02:10;90824.72;;;9.20;100.00
53300;BME280;39187;48.476;8.310;2023-05-10T04:04:35;90823.13;;;9.22;100.00
53300;BME280;39187;48.476;8.310;2023-05-10T04:07:01;90825.31;;;9.28;100.00
53300;BME280;39187;48.476;8.310;2023-05-10T04:09:26;90822.47;;;9.18;100.00
53300;BME280;39187;48.476;8.310;2023-05-10T04:11:52;90822.72;;;9.24;100.00
53300;BME280;39187;48.476;8.310;2023-05-10T04:14:17;90814.09;;;9.36;100.00
53300;BME280;39187;48.476;8.310;2023-05-10T04:16:43;90819.34;;;9.40;100.00
53300;BME280;39187;48.476;8.310;2023-05-10T04:19:08;90819.81;;;9.02;100.00
53300;BME280;39187;48.476;8.310;2023-05-10T04:21:34;90829.41;;;8.96;100.00
53300;BME280;39187;48.476;8.310;2023-05-10T04:23:59;90820.97;;;9.01;100.00
53300;BME280;39187;48.476;8.310;2023-05-10T04:26:25;90826.53;;;9.07;100.00
53300;BME280;39187;48.476;8.310;2023-05-10T04:28:50;90822.47;;;9.02;100.00
53300;BME280;39187;48.476;8.310;2023-05-10T04:31:16;90823.13;;;9.06;100.00
53300;BME280;39187;48.476;8.310;2023-05-10T04:33:42;90829.03;;;9.14;100.00
53300;BME280;39187;48.476;8.310;2023-05-10T04:36:08;90830.00;;;9.04;100.00
53300;BME280;39187;48.476;8.310;2023-05-10T04:38:33;90834.09;;;9.08;100.00
53300;BME280;39187;48.476;8.310;2023-05-10T04:41:08;90846.28;;;9.06;100.00
53300;BME280;39187;48.476;8.310;2023-05-10T04:43:35;90839.69;;;8.94;100.00
53300;BME280;39187;48.476;8.310;2023-05-10T04:46:01;90843.34;;;9.00;100.00
53300;BME280;39187;48.476;8.310;2023-05-10T04:48:33;90840.19;;;8.89;100.00
53300;BME280;39187;48.476;8.310;2023-05-10T04:50:59;90842.47;;;9.07;100.00
53300;BME280;39187;48.476;8.310;2023-05-10T04:53:24;90842.88;;;9.05;100.00
53300;BME280;39187;48.476;8.310;2023-05-10T04:55:50;90847.06;;;9.03;100.00
53300;BME280;39187;48.476;8.310;2023-05-10T04:58:15;90848.78;;;9.13;100.00
53300;BME280;39187;48.476;8.310;2023-05-10T05:00:41;90846.78;;;9.17;100.00
53300;BME280;39187;48.476;8.310;2023-05-10T05:03:07;90843.41;;;9.33;100.00
53300;BME280;39187;48.476;8.310;2023-05-10T05:05:33;90846.38;;;9.18;100.00
53300;BME280;39187;48.476;8.310;2023-05-10T05:07:58;90841.63;;;9.10;100.00
53300;BME280;39187;48.476;8.310;2023-05-10T05:10:24;90843.16;;;8.91;100.00
53300;BME280;39187;48.476;8.310;2023-05-10T05:12:49;90845.66;;;8.98;100.00
53300;BME280;39187;48.476;8.310;2023-05-10T05:15:15;90847.41;;;9.05;100.00
53300;BME280;39187;48.476;8.310;2023-05-10T05:17:42;90846.88;;;9.13;100.00
53300;BME280;39187;48.476;8.310;2023-05-10T05:20:08;90856.25;;;9.18;100.00
53300;BME280;39187;48.476;8.310;2023-05-10T05:22:35;90850.03;;;9.24;100.00
53300;BME280;39187;48.476;8.310;2023-05-10T05:25:01;90852.13;;;9.33;100.00
53300;BME280;39187;48.476;8.310;2023-05-10T05:27:28;90854.78;;;9.33;100.00
53300;BME280;39187;48.476;8.310;2023-05-10T05:29:58;90859.38;;;9.13;100.00
53300;BME280;39187;48.476;8.310;2023-05-10T05:32:24;90863.66;;;9.43;100.00
53300;BME280;39187;48.476;8.310;2023-05-10T05:34:50;90862.75;;;9.33;100.00
53300;BME280;39187;48.476;8.310;2023-05-10T05:37:18;90872.50;;;9.20;100.00
53300;BME280;39187;48.476;8.310;2023-05-10T05:39:44;90889.84;;;9.24;100.00
53300;BME280;39187;48.476;8.310;2023-05-10T05:42:11;90873.47;;;9.10;100.00
53300;BME280;39187;48.476;8.310;2023-05-10T05:44:36;90877.00;;;9.23;100.00
53300;BME280;39187;48.476;8.310;2023-05-10T05:47:02;90878.13;;;9.06;100.00
53300;BME280;39187;48.476;8.310;2023-05-10T05:49:28;90888.13;;;8.98;100.00
53300;BME280;39187;48.476;8.310;2023-05-10T05:51:54;90887.31;;;9.01;100.00
53300;BME280;39187;48.476;8.310;2023-05-10T05:54:19;90889.97;;;9.01;100.00
53300;BME280;39187;48.476;8.310;2023-05-10T05:56:45;90890.00;;;8.81;100.00
53300;BME280;39187;48.476;8.310;2023-05-10T05:59:11;90892.19;;;9.03;100.00
53300;BME280;39187;48.476;8.310;2023-05-10T06:01:36;90891.06;;;9.04;100.00
53300;BME280;39187;48.476;8.310;2023-05-10T06:04:02;90888.53;;;8.97;100.00
53300;BME280;39187;48.476;8.310;2023-05-10T06:06:28;90901.41;;;8.98;100.00
53300;BME280;39187;48.476;8.310;2023-05-10T06:08:54;90901.16;;;8.73;100.00
53300;BME280;39187;48.476;8.310;2023-05-10T06:11:19;90902.38;;;8.68;100.00
53300;BME280;39187;48.476;8.310;2023-05-10T06:13:46;90898.63;;;8.66;100.00
53300;BME280;39187;48.476;8.310;2023-05-10T06:16:12;90903.31;;;8.78;100.00
53300;BME280;39187;48.476;8.310;2023-05-10T06:18:38;90906.03;;;8.94;100.00
53300;BME280;39187;48.476;8.310;2023-05-10T06:21:04;90902.09;;;9.02;100.00
53300;BME280;39187;48.476;8.310;2023-05-10T06:23:29;90904.03;;;9.18;100.00
53300;BME280;39187;48.476;8.310;2023-05-10T06:25:55;90909.19;;;9.25;100.00
53300;BME280;39187;48.476;8.310;2023-05-10T06:28:20;90916.03;;;9.06;100.00
53300;BME280;39187;48.476;8.310;2023-05-10T06:30:46;90917.75;;;8.77;100.00
53300;BME280;39187;48.476;8.310;2023-05-10T06:33:11;90921.47;;;8.99;100.00
53300;BME280;39187;48.476;8.310;2023-05-10T06:35:37;90905.91;;;9.01;100.00
53300;BME280;39187;48.476;8.310;2023-05-10T06:38:02;90912.72;;;9.02;100.00
53300;BME280;39187;48.476;8.310;2023-05-10T06:40:28;90928.06;;;9.11;100.00
53300;BME280;39187;48.476;8.310;2023-05-10T06:42:53;90921.94;;;9.34;100.00
53300;BME280;39187;48.476;8.310;2023-05-10T06:45:19;90918.22;;;9.47;100.00
53300;BME280;39187;48.476;8.310;2023-05-10T06:47:44;90931.78;;;9.33;100.00
53300;BME280;39187;48.476;8.310;2023-05-10T06:50:11;90920.47;;;9.29;100.00
53300;BME280;39187;48.476;8.310;2023-05-10T06:52:37;90927.09;;;9.57;100.00
53300;BME280;39187;48.476;8.310;2023-05-10T06:55:03;90923.34;;;9.54;100.00
53300;BME280;39187;48.476;8.310;2023-05-10T06:57:29;90921.88;;;9.53;100.00
53300;BME280;39187;48.476;8.310;2023-05-10T06:59:55;90929.59;;;9.64;100.00
53300;BME280;39187;48.476;8.310;2023-05-10T07:02:23;90928.53;;;9.78;100.00
53300;BME280;39187;48.476;8.310;2023-05-10T07:04:49;90926.28;;;9.76;100.00
53300;BME280;39187;48.476;8.310;2023-05-10T07:07:15;90934.91;;;9.80;100.00
53300;BME280;39187;48.476;8.310;2023-05-10T07:09:40;90933.03;;;9.97;100.00
53300;BME280;39187;48.476;8.310;2023-05-10T07:12:06;90929.00;;;9.56;100.00
53300;BME280;39187;48.476;8.310;2023-05-10T07:14:31;90932.00;;;9.75;100.00
53300;BME280;39187;48.476;8.310;2023-05-10T07:16:57;90936.81;;;9.80;100.00
53300;BME280;39187;48.476;8.310;2023-05-10T07:19:23;90936.41;;;9.65;100.00
53300;BME280;39187;48.476;8.310;2023-05-10T07:21:48;90943.69;;;9.45;100.00
53300;BME280;39187;48.476;8.310;2023-05-10T07:24:15;90935.81;;;9.74;100.00
53300;BME280;39187;48.476;8.310;2023-05-10T07:26:40;90939.09;;;9.97;100.00
53300;BME280;39187;48.476;8.310;2023-05-10T07:29:06;90937.19;;;9.98;100.00
53300;BME280;39187;48.476;8.310;2023-05-10T07:31:31;90941.00;;;10.13;100.00
53300;BME280;39187;48.476;8.310;2023-05-10T07:33:57;90945.25;;;10.11;100.00
53300;BME280;39187;48.476;8.310;2023-05-10T07:36:22;90937.19;;;10.14;100.00
53300;BME280;39187;48.476;8.310;2023-05-10T07:38:48;90944.47;;;9.94;100.00
53300;BME280;39187;48.476;8.310;2023-05-10T07:41:14;90943.41;;;9.91;100.00
53300;BME280;39187;48.476;8.310;2023-05-10T07:43:40;90945.97;;;9.95;100.00
53300;BME280;39187;48.476;8.310;2023-05-10T07:46:05;90950.56;;;10.11;100.00
53300;BME280;39187;48.476;8.310;2023-05-10T07:48:31;90940.09;;;10.20;100.00
53300;BME280;39187;48.476;8.310;2023-05-10T07:50:56;90948.16;;;10.32;100.00
53300;BME280;39187;48.476;8.310;2023-05-10T07:53:22;90943.47;;;10.53;100.00
53300;BME280;39187;48.476;8.310;2023-05-10T07:55:51;90942.72;;;10.52;100.00
53300;BME280;39187;48.476;8.310;2023-05-10T07:58:17;90947.13;;;10.59;100.00
53300;BME280;39187;48.476;8.310;2023-05-10T08:00:43;90948.38;;;10.54;100.00
53300;BME280;39187;48.476;8.310;2023-05-10T08:03:08;90949.38;;;10.60;100.00
53300;BME280;39187;48.476;8.310;2023-05-10T08:05:34;90952.50;;;10.42;100.00
53300;BME280;39187;48.476;8.310;2023-05-10T08:07:59;90941.25;;;10.35;100.00
53300;BME280;39187;48.476;8.310;2023-05-10T08:10:25;90943.50;;;10.36;100.00
53300;BME280;39187;48.476;8.310;2023-05-10T08:12:51;90944.16;;;10.08;100.00
53300;BME280;39187;48.476;8.310;2023-05-10T08:15:16;90949.25;;;10.19;100.00
53300;BME280;39187;48.476;8.310;2023-05-10T08:17:42;90940.03;;;10.23;100.00
53300;BME280;39187;48.476;8.310;2023-05-10T08:20:08;90946.66;;;10.31;100.00
53300;BME280;39187;48.476;8.310;2023-05-10T08:22:34;90957.34;;;10.12;100.00
53300;BME280;39187;48.476;8.310;2023-05-10T08:25:00;90956.31;;;10.25;100.00
53300;BME280;39187;48.476;8.310;2023-05-10T08:27:25;90956.69;;;10.07;100.00
53300;BME280;39187;48.476;8.310;2023-05-10T08:29:51;90955.13;;;9.94;100.00
53300;BME280;39187;48.476;8.310;2023-05-10T08:32:17;90962.53;;;10.02;100.00
53300;BME280;39187;48.476;8.310;2023-05-10T08:34:42;90957.69;;;10.14;100.00
53300;BME280;39187;48.476;8.310;2023-05-10T08:37:08;90953.47;;;10.00;100.00
53300;BME280;39187;48.476;8.310;2023-05-10T08:39:35;90948.47;;;9.86;100.00
53300;BME280;39187;48.476;8.310;2023-05-10T08:42:03;90955.13;;;9.94;100.00
53300;BME280;39187;48.476;8.310;2023-05-10T08:44:31;90955.78;;;10.14;100.00
53300;BME280;39187;48.476;8.310;2023-05-10T08:46:59;90959.06;;;10.22;100.00
53300;BME280;39187;48.476;8.310;2023-05-10T08:49:31;90966.63;;;10.23;100.00
53300;BME280;39187;48.476;8.310;2023-05-10T08:51:57;90966.84;;;9.96;100.00
53300;BME280;39187;48.476;8.310;2023-05-10T08:54:24;90958.63;;;9.91;100.00
53300;BME280;39187;48.476;8.310;2023-05-10T08:56:50;90965.69;;;9.97;100.00
53300;BME280;39187;48.476;8.310;2023-05-10T08:59:17;90965.69;;;10.14;100.00
53300;BME280;39187;48.476;8.310;2023-05-10T09:01:44;90963.88;;;10.43;100.00
53300;BME280;39187;48.476;8.310;2023-05-10T09:04:11;90964.94;;;10.62;100.00
53300;BME280;39187;48.476;8.310;2023-05-10T09:06:37;90975.69;;;10.42;100.00
53300;BME280;39187;48.476;8.310;2023-05-10T09:09:03;90968.75;;;10.61;100.00
53300;BME280;39187;48.476;8.310;2023-05-10T09:11:29;90976.56;;;10.97;100.00
53300;BME280;39187;48.476;8.310;2023-05-10T09:13:55;90979.69;;;10.79;100.00
53300;BME280;39187;48.476;8.310;2023-05-10T09:16:22;90972.75;;;10.69;100.00
53300;BME280;39187;48.476;8.310;2023-05-10T09:18:48;90977.34;;;11.10;100.00
53300;BME280;39187;48.476;8.310;2023-05-10T09:21:14;90978.72;;;11.43;100.00
53300;BME280;39187;48.476;8.310;2023-05-10T09:23:44;90971.63;;;11.78;100.00
53300;BME280;39187;48.476;8.310;2023-05-10T09:26:10;90972.28;;;12.20;100.00
53300;BME280;39187;48.476;8.310;2023-05-10T09:28:58;90981.66;;;12.25;100.00
53300;BME280;39187;48.476;8.310;2023-05-10T09:31:24;90988.84;;;12.02;100.00
53300;BME280;39187;48.476;8.310;2023-05-10T09:34:07;90985.78;;;11.62;100.00
53300;BME280;39187;48.476;8.310;2023-05-10T09:36:33;90996.69;;;11.26;100.00
53300;BME280;39187;48.476;8.310;2023-05-10T09:38:58;91010.47;;;11.38;100.00
53300;BME280;39187;48.476;8.310;2023-05-10T09:41:25;91014.06;;;11.02;100.00
53300;BME280;39187;48.476;8.310;2023-05-10T09:43:55;91013.63;;;11.20;100.00
53300;BME280;39187;48.476;8.310;2023-05-10T09:46:21;91008.00;;;10.57;100.00
53300;BME280;39187;48.476;8.310;2023-05-10T09:48:48;91004.50;;;10.43;100.00
53300;BME280;39187;48.476;8.310;2023-05-10T09:51:24;91009.66;;;10.51;100.00
53300;BME280;39187;48.476;8.310;2023-05-10T09:54:12;91012.19;;;10.41;100.00
53300;BME280;39187;48.476;8.310;2023-05-10T09:56:38;91007.03;;;10.34;100.00
53300;BME280;39187;48.476;8.310;2023-05-10T09:59:07;91011.25;;;10.48;100.00
53300;BME280;39187;48.476;8.310;2023-05-10T10:01:37;91005.00;;;10.38;100.00
53300;BME280;39187;48.476;8.310;2023-05-10T10:04:04;91009.66;;;10.67;100.00
53300;BME280;39187;48.476;8.310;2023-05-10T10:06:35;91008.50;;;10.68;100.00
53300;BME280;39187;48.476;8.310;2023-05-10T10:09:01;91008.81;;;10.70;100.00
53300;BME280;39187;48.476;8.310;2023-05-10T10:11:27;91013.06;;;10.67;100.00
53300;BME280;39187;48.476;8.310;2023-05-10T10:13:53;91012.81;;;10.45;100.00
53300;BME280;39187;48.476;8.310;2023-05-10T10:16:19;91007.69;;;10.38;100.00
53300;BME280;39187;48.476;8.310;2023-05-10T10:18:45;91015.66;;;10.55;100.00
53300;BME280;39187;48.476;8.310;2023-05-10T10:21:13;91017.56;;;10.38;100.00
53300;BME280;39187;48.476;8.310;2023-05-10T10:23:40;91025.56;;;10.54;100.00
53300;BME280;39187;48.476;8.310;2023-05-10T10:26:06;91022.31;;;10.30;100.00
53300;BME280;39187;48.476;8.310;2023-05-10T10:31:23;91030.72;;;9.93;100.00
53300;BME280;39187;48.476;8.310;2023-05-10T10:34:04;91023.28;;;10.04;100.00
53300;BME280;39187;48.476;8.310;2023-05-10T10:36:30;91025.81;;;9.91;100.00
53300;BME280;39187;48.476;8.310;2023-05-10T10:39:01;91035.56;;;9.98;100.00
53300;BME280;39187;48.476;8.310;2023-05-10T10:41:35;91036.00;;;9.77;100.00
53300;BME280;39187;48.476;8.310;2023-05-10T10:52:15;91034.25;;;9.50;100.00
53300;BME280;39187;48.476;8.310;2023-05-10T10:54:44;91031.56;;;9.34;100.00
53300;BME280;39187;48.476;8.310;2023-05-10T10:57:14;91036.16;;;9.70;100.00
53300;BME280;39187;48.476;8.310;2023-05-10T10:59:44;91031.06;;;9.95;100.00
53300;BME280;39187;48.476;8.310;2023-05-10T11:02:09;91033.75;;;10.11;100.00
53300;BME280;39187;48.476;8.310;2023-05-10T11:04:42;91034.78;;;10.17;100.00
53300;BME280;39187;48.476;8.310;2023-05-10T11:07:18;91027.16;;;10.35;100.00
53300;BME280;39187;48.476;8.310;2023-05-10T11:09:47;91026.06;;;10.49;100.00
53300;BME280;39187;48.476;8.310;2023-05-10T11:12:12;91030.38;;;10.27;100.00
53300;BME280;39187;48.476;8.310;2023-05-10T11:14:38;91021.06;;;10.35;100.00
53300;BME280;39187;48.476;8.310;2023-05-10T11:17:26;91029.28;;;10.57;100.00
53300;BME280;39187;48.476;8.310;2023-05-10T11:20:07;91027.91;;;10.97;100.00
53300;BME280;39187;48.476;8.310;2023-05-10T11:22:53;91030.22;;;11.11;100.00
53300;BME280;39187;48.476;8.310;2023-05-10T11:25:19;91036.75;;;10.94;100.00
53300;BME280;39187;48.476;8.310;2023-05-10T11:27:47;91023.69;;;10.83;100.00
53300;BME280;39187;48.476;8.310;2023-05-10T11:30:13;91034.03;;;11.10;100.00
53300;BME280;39187;48.476;8.310;2023-05-10T11:32:40;91031.38;;;11.10;100.00
53300;BME280;39187;48.476;8.310;2023-05-10T11:35:10;91034.84;;;11.23;100.00
53300;BME280;39187;48.476;8.310;2023-05-10T11:37:37;91027.47;;;11.27;100.00
53300;BME280;39187;48.476;8.310;2023-05-10T11:40:08;91033.22;;;10.97;100.00
53300;BME280;39187;48.476;8.310;2023-05-10T11:42:37;91033.97;;;11.26;100.00
53300;BME280;39187;48.476;8.310;2023-05-10T11:45:03;91032.91;;;11.24;100.00
53300;BME280;39187;48.476;8.310;2023-05-10T11:47:28;91021.00;;;11.29;100.00
53300;BME280;39187;48.476;8.310;2023-05-10T11:49:54;91022.94;;;11.41;100.00
53300;BME280;39187;48.476;8.310;2023-05-10T11:52:20;91020.81;;;11.07;100.00
53300;BME280;39187;48.476;8.310;2023-05-10T11:54:52;91020.13;;;11.19;100.00
53300;BME280;39187;48.476;8.310;2023-05-10T11:57:19;91016.25;;;11.49;100.00
53300;BME280;39187;48.476;8.310;2023-05-10T11:59:46;91015.44;;;11.64;100.00
53300;BME280;39187;48.476;8.310;2023-05-10T12:02:14;91016.69;;;12.01;99.05
53300;BME280;39187;48.476;8.310;2023-05-10T12:04:41;91014.03;;;11.60;100.00
53300;BME280;39187;48.476;8.310;2023-05-10T12:07:06;91014.44;;;12.13;100.00
53300;BME280;39187;48.476;8.310;2023-05-10T12:09:32;91023.81;;;12.04;100.00
53300;BME280;39187;48.476;8.310;2023-05-10T12:11:58;91014.13;;;11.98;100.00
53300;BME280;39187;48.476;8.310;2023-05-10T12:14:23;91014.09;;;12.36;98.17
53300;BME280;39187;48.476;8.310;2023-05-10T12:16:49;91020.94;;;12.50;97.73
53300;BME280;39187;48.476;8.310;2023-05-10T12:19:19;91017.44;;;12.15;97.93
53300;BME280;39187;48.476;8.310;2023-05-10T12:21:48;91031.31;;;12.22;94.88
53300;BME280;39187;48.476;8.310;2023-05-10T12:24:13;91028.66;;;12.35;92.68
53300;BME280;39187;48.476;8.310;2023-05-10T12:26:43;91025.66;;;12.20;92.92
53300;BME280;39187;48.476;8.310;2023-05-10T12:29:17;91025.50;;;12.62;92.52
53300;BME280;39187;48.476;8.310;2023-05-10T12:31:57;91027.72;;;12.76;91.78
53300;BME280;39187;48.476;8.310;2023-05-10T12:34:33;91024.41;;;12.84;91.51
53300;BME280;39187;48.476;8.310;2023-05-10T12:37:00;91028.63;;;12.48;93.27
53300;BME280;39187;48.476;8.310;2023-05-10T12:39:26;91027.84;;;12.72;93.99
53300;BME280;39187;48.476;8.310;2023-05-10T12:42:02;91018.38;;;12.59;93.84
53300;BME280;39187;48.476;8.310;2023-05-10T12:44:27;91017.41;;;12.65;93.64
53300;BME280;39187;48.476;8.310;2023-05-10T12:46:53;91027.06;;;12.84;95.27
53300;BME280;39187;48.476;8.310;2023-05-10T12:49:18;91033.66;;;13.05;94.25
53300;BME280;39187;48.476;8.310;2023-05-10T12:51:44;91018.66;;;13.08;91.70
53300;BME280;39187;48.476;8.310;2023-05-10T12:54:10;91023.91;;;13.11;88.27
53300;BME280;39187;48.476;8.310;2023-05-10T12:56:35;91023.84;;;12.90;87.63
53300;BME280;39187;48.476;8.310;2023-05-10T12:59:02;91023.88;;;12.77;85.94
53300;BME280;39187;48.476;8.310;2023-05-10T13:01:27;91027.44;;;12.23;87.78
53300;BME280;39187;48.476;8.310;2023-05-10T13:03:53;91037.06;;;12.21;89.29
53300;BME280;39187;48.476;8.310;2023-05-10T13:06:18;91025.31;;;12.43;88.24
53300;BME280;39187;48.476;8.310;2023-05-10T13:08:44;91026.59;;;12.52;89.45
53300;BME280;39187;48.476;8.310;2023-05-10T13:11:10;91028.63;;;12.48;91.82
53300;BME280;39187;48.476;8.310;2023-05-10T13:13:35;91031.06;;;12.67;91.18
53300;BME280;39187;48.476;8.310;2023-05-10T13:16:01;91026.81;;;12.19;92.66
53300;BME280;39187;48.476;8.310;2023-05-10T13:18:26;91024.75;;;12.61;94.65
53300;BME280;39187;48.476;8.310;2023-05-10T13:20:53;91033.31;;;12.56;94.03